Latest Weather Observations for Gingin Airport

IDW60801

Issued at 11:33 pm WST Saturday 25 June 2016 (issued every 30 minutes, with the page automatically refreshed every 10 minutes)

About weather observations | Map of weather stations | Latest weather observations for WA | Other Formats
Station Details ID: 009178 Name: GINGIN AERO Lat: -31.46 Lon: 115.86 Height: 73.0 m
Data from the previous 72 hours. | See also: Recent months at Gingin Airport
Date/Time
WST
Temp
°C
App
Temp
°C
Dew
Point
°C
Rel
Hum
%
Delta-T
°C
Wind Press
QNH
hPa
Press
MSL
hPa
Rain since
9am
mm
Dir  Spd
km/h
Gust
km/h
Spd
kts
Gust
kts
25/11:30pm 3.7 0.5 2.8 94 0.4 ENE 9 13 5 7 1024.3 1024.3 3.2
25/11:00pm 4.1 2.6 3.1 93 0.4 CALM 0 0 0 0 1024.4 1024.4 3.2
25/10:30pm 4.0 2.5 2.8 92 0.5 CALM 0 0 0 0 1024.3 1024.3 3.2
25/10:00pm 4.7 3.3 3.4 91 0.5 CALM 0 0 0 0 1024.5 1024.5 3.2
25/09:30pm 5.9 4.3 4.4 90 0.6 SE 2 7 1 4 1024.4 1024.4 3.2
25/09:00pm 6.7 4.4 4.7 87 0.9 SE 6 7 3 4 1024.3 1024.3 3.2
25/08:30pm 7.4 5.1 5.0 85 1.1 SE 6 7 3 4 1024.2 1024.2 3.2
25/08:00pm 9.7 6.6 5.7 76 1.8 SSW 11 13 6 7 1024.0 1024.0 3.2
25/07:30pm 9.2 6.5 5.8 79 1.6 SSW 9 11 5 6 1023.8 1023.8 3.2
25/07:00pm 10.5 7.9 5.9 73 2.1 SSW 9 11 5 6 1023.3 1023.3 3.2
25/06:30pm 11.1 8.6 6.5 73 2.2 SW 9 11 5 6 1023.0 1023.0 3.2
25/06:00pm 11.9 9.7 8.0 77 1.9 SW 9 13 5 7 1022.5 1022.5 3.2
25/05:30pm 13.7 10.8 8.1 69 2.8 SSW 13 17 7 9 1022.2 1022.2 3.2
25/05:00pm 14.9 11.9 7.5 61 3.7 S 13 22 7 12 1021.6 1021.6 3.2
25/04:30pm 15.9 12.4 8.6 62 3.7 SSE 17 22 9 12 1021.3 1021.3 3.2
25/04:00pm 15.7 12.6 8.7 63 3.6 S 15 22 8 12 1021.2 1021.2 3.2
25/03:30pm 15.9 11.9 8.2 60 3.9 S 19 26 10 14 1020.8 1020.8 3.2
25/03:00pm 16.1 12.6 8.8 62 3.7 S 17 20 9 11 1020.6 1020.6 3.2
25/02:30pm 16.3 11.8 8.5 60 4.0 S 22 32 12 17 1020.3 1020.3 3.2
25/02:00pm 16.2 11.8 8.9 62 3.7 S 22 30 12 16 1020.2 1020.2 3.2
25/01:30pm 15.9 12.3 9.8 67 3.2 S 19 28 10 15 1020.1 1020.1 3.2
25/01:00pm 15.6 13.6 11.4 76 2.3 SSE 13 17 7 9 1020.2 1020.2 3.2
25/12:30pm 14.7 11.7 10.7 77 2.1 S 17 24 9 13 1020.4 1020.4 3.2
25/12:00pm 14.1 11.4 11.8 86 1.2 S 17 24 9 13 1020.8 1020.8 3.2
25/11:30am 13.5 12.9 12.2 92 0.7 W 7 11 4 6 1020.7 1020.7 3.0
25/11:00am 13.2 12.5 11.9 92 0.7 NW 7 11 4 6 1020.6 1020.6 3.0
25/10:30am 13.0 11.4 11.4 90 0.8 N 11 15 6 8 1020.7 1020.7 2.0
25/10:00am 12.6 10.4 10.8 89 0.9 NNW 13 19 7 10 1020.4 1020.4 1.4
25/09:30am 12.5 10.1 9.9 84 1.3 NNW 13 15 7 8 1020.1 1020.1 0.0
25/09:00am 11.7 9.9 9.6 87 1.1 N 9 15 5 8 1019.6 1019.6 0.4
25/08:30am 11.0 9.2 9.4 90 0.8 NNW 9 15 5 8 1019.6 1019.6 0.4
25/08:00am 9.8 7.1 8.9 94 0.4 N 13 17 7 9 1019.2 1019.2 0.4
25/07:30am 9.5 6.7 8.7 95 0.4 N 13 17 7 9 1018.8 1018.8 0.4
25/07:00am 9.8 6.7 8.9 94 0.4 N 15 20 8 11 1018.8 1018.8 0.4
25/06:30am 9.8 7.1 9.0 95 0.4 N 13 20 7 11 1018.6 1018.6 0.4
25/06:00am 9.8 7.4 8.7 93 0.5 N 11 15 6 8 1018.5 1018.4 0.4
25/05:30am 9.8 6.9 8.2 90 0.8 N 13 19 7 10 1018.1 1018.0 0.2
25/05:00am 9.3 6.3 7.9 91 0.7 N 13 15 7 8 1017.9 1017.8 0.2
25/04:30am 9.2 7.3 7.5 89 0.8 NNW 7 9 4 5 1017.8 1017.7 0.0
25/04:00am 9.0 6.6 7.1 88 0.9 NNW 9 11 5 6 1017.8 1017.7 0.0
25/03:30am 9.1 6.3 7.1 87 0.9 NNE 11 15 6 8 1017.9 1017.8 0.0
25/03:00am 8.9 6.4 6.5 85 1.1 NNW 9 13 5 7 1018.2 1018.1 0.0
25/02:30am 9.0 6.5 6.4 84 1.2 NW 9 15 5 8 1018.3 1018.2 0.0
25/02:00am 9.1 6.9 6.4 83 1.2 NNW 7 9 4 5 1018.2 1018.1 0.0
25/01:30am 9.3 6.3 6.2 81 1.4 N 11 15 6 8 1018.0 1017.9 0.0
25/01:00am 8.6 5.2 6.1 84 1.1 NNE 13 15 7 8 1017.9 1017.8 0.0
25/12:30am 8.1 4.7 5.9 86 1.0 N 13 15 7 8 1018.2 1018.1 0.0
25/12:00am 7.5 4.4 5.6 88 0.9 N 11 13 6 7 1018.3 1018.2 0.0
 
Date/Time
WST
Temp
°C
App
Temp
°C
Dew
Point
°C
Rel
Hum
%
Delta-T
°C
Wind Press
QNH
hPa
Press
MSL
hPa
Rain since
9am
mm
Dir  Spd
km/h
Gust
km/h
Spd
kts
Gust
kts
24/11:30pm 7.3 4.1 5.1 86 1.0 N 11 13 6 7 1018.5 1018.4 0.0
24/11:00pm 7.6 4.5 5.4 86 1.0 N 11 11 6 6 1018.6 1018.6 0.0
24/10:30pm 6.2 2.9 4.8 91 0.6 N 11 13 6 7 1018.5 1018.4 0.0
24/10:00pm 6.6 4.3 4.9 89 0.7 NNE 6 7 3 4 1018.6 1018.6 0.0
24/09:30pm 7.6 5.4 5.2 85 1.1 NNE 6 7 3 4 1018.3 1018.2 0.0
24/09:00pm 7.9 4.5 5.9 87 0.9 NE 13 17 7 9 1018.4 1018.3 0.0
24/08:30pm 8.4 5.8 6.0 85 1.1 NNE 9 11 5 6 1018.5 1018.4 0.0
24/08:00pm 8.9 6.3 6.2 83 1.2 NNE 9 11 5 6 1018.4 1018.3 0.0
24/07:30pm 10.1 6.9 7.0 81 1.5 NNE 13 15 7 8 1018.4 1018.3 0.0
24/07:00pm 9.1 6.6 6.7 85 1.1 NNE 9 11 5 6 1018.5 1018.4 0.0
24/06:30pm 10.3 8.6 7.4 82 1.4 NNW 6 7 3 4 1018.4 1018.3 0.0
24/06:00pm 11.2 9.2 7.1 76 2.0 N 7 9 4 5 1018.1 1018.0 0.0
24/05:30pm 13.4 11.4 7.0 65 3.1 NNE 7 9 4 5 1017.9 1017.8 0.0
24/05:00pm 15.5 13.6 7.5 59 4.0 NNE 7 9 4 5 1017.7 1017.6 0.0
24/04:30pm 16.0 13.9 6.7 54 4.6 NNE 7 9 4 5 1017.5 1017.4 0.0
24/04:00pm 15.7 13.5 6.4 54 4.5 N 7 9 4 5 1017.5 1017.4 0.0
24/03:30pm 16.3 13.8 6.4 52 4.9 N 9 13 5 7 1017.5 1017.4 0.0
24/03:00pm 16.1 13.1 6.0 51 4.9 NNE 11 15 6 8 1017.6 1017.5 0.0
24/02:30pm 16.8 13.9 6.3 50 5.2 NE 11 17 6 9 1017.7 1017.6 0.0
24/02:00pm 16.3 12.5 5.6 49 5.1 NNE 15 26 8 14 1017.8 1017.7 0.0
24/01:30pm 16.4 12.6 6.0 50 5.1 N 15 22 8 12 1018.3 1018.2 0.0
24/01:00pm 16.1 12.0 6.0 51 4.9 NNE 17 24 9 13 1018.8 1018.8 0.0
24/12:30pm 16.4 12.0 6.5 52 4.9 NNE 19 26 10 14 1019.3 1019.3 0.0
24/12:00pm 15.2 10.6 5.7 53 4.5 NNE 19 26 10 14 1020.0 1020.0 0.0
24/11:30am 14.9 10.1 5.4 53 4.5 NNE 20 26 11 14 1020.5 1020.5 0.0
24/11:00am 14.4 9.8 5.5 55 4.2 NE 19 24 10 13 1020.7 1020.7 0.0
24/10:30am 14.0 8.7 5.1 55 4.2 NNE 22 32 12 17 1020.9 1020.9 0.0
24/10:00am 13.5 8.8 5.2 57 3.9 NNE 19 30 10 16 1020.9 1020.9 0.0
24/09:30am 12.7 8.3 4.9 59 3.6 NNE 17 20 9 11 1021.0 1021.0 0.0
24/09:00am 12.2 9.5 5.4 63 3.2 NE 9 15 5 8 1020.8 1020.8 0.0
24/08:30am 11.3 7.8 5.4 67 2.7 NNE 13 19 7 10 1020.7 1020.7 0.0
24/08:00am 10.8 6.8 5.1 68 2.6 NNE 15 19 8 10 1020.5 1020.5 0.0
24/07:30am 10.5 6.5 5.1 69 2.5 NNE 15 20 8 11 1020.3 1020.3 0.0
24/07:00am 10.3 6.3 4.9 69 2.4 NNE 15 19 8 10 1020.4 1020.4 0.0
24/06:30am 10.3 6.3 5.1 70 2.4 NNE 15 20 8 11 1020.3 1020.3 0.0
24/06:00am 10.6 6.2 4.9 68 2.6 NNE 17 22 9 12 1020.2 1020.2 0.0
24/05:30am 10.4 6.5 5.2 70 2.4 NNE 15 20 8 11 1020.3 1020.3 0.0
24/05:00am 10.4 5.7 5.2 70 2.4 NNE 19 26 10 14 1020.3 1020.3 0.0
24/04:30am 10.5 6.2 5.3 70 2.4 NNE 17 24 9 13 1020.3 1020.3 0.0
24/04:00am 10.2 6.0 5.6 73 2.1 NNE 17 20 9 11 1020.5 1020.5 0.0
24/03:30am 10.1 6.0 6.3 77 1.8 NE 17 22 9 12 1020.5 1020.5 0.0
24/03:00am 9.4 7.1 7.3 87 1.0 E 9 11 5 6 1020.5 1020.5 0.0
24/02:30am 9.1 6.4 7.5 90 0.8 E 11 13 6 7 1020.6 1020.6 0.0
24/02:00am 8.3 6.3 6.9 91 0.7 E 7 7 4 4 1020.9 1020.9 0.0
24/01:30am 8.2 6.2 7.0 92 0.6 E 7 9 4 5 1021.1 1021.1 0.0
24/01:00am 7.6 5.4 6.1 90 0.7 E 7 9 4 5 1021.2 1021.2 0.0
24/12:30am 8.7 6.6 6.7 87 0.9 E 7 7 4 4 1021.3 1021.3 0.0
24/12:00am 9.2 6.8 7.0 86 1.0 E 9 13 5 7 1021.5 1021.5 0.0
 
Date/Time
WST
Temp
°C
App
Temp
°C
Dew
Point
°C
Rel
Hum
%
Delta-T
°C
Wind Press
QNH
hPa
Press
MSL
hPa
Rain since
9am
mm
Dir  Spd
km/h
Gust
km/h
Spd
kts
Gust
kts
23/11:30pm 10.0 9.1 7.8 86 1.1 E 2 6 1 3 1021.8 1021.8 0.0
23/11:00pm 10.3 8.7 7.9 85 1.2 E 6 7 3 4 1021.8 1021.8 0.0
23/10:30pm 10.7 10.0 8.5 86 1.1 E 2 6 1 3 1021.9 1021.9 0.0
23/10:00pm 11.0 8.6 8.8 86 1.1 E 11 13 6 7 1021.9 1021.9 0.0
23/09:30pm 11.9 11.2 8.7 81 1.6 E 2 7 1 4 1022.0 1022.0 0.0
23/09:00pm 12.2 12.0 9.0 81 1.6 CALM 0 0 0 0 1021.9 1021.9 0.0
23/08:30pm 12.5 12.5 9.9 84 1.3 CALM 0 6 0 3 1021.9 1021.9 0.0
23/08:00pm 12.4 11.8 9.1 80 1.7 E 2 6 1 3 1021.7 1021.7 0.0
23/07:30pm 13.1 11.7 9.4 78 1.9 E 7 9 4 5 1021.6 1021.6 0.0
23/07:00pm 12.8 12.7 9.4 80 1.7 CALM 0 4 0 2 1021.3 1021.3 0.0
23/06:30pm 12.5 12.7 10.4 87 1.1 CALM 0 0 0 0 1021.2 1021.2 0.0
23/06:00pm 12.8 12.8 9.8 82 1.5 CALM 0 0 0 0 1021.1 1021.1 0.0
23/05:30pm 13.4 11.9 8.3 71 2.5 E 6 6 3 3 1020.9 1020.9 0.0
23/05:00pm 14.6 13.0 7.9 64 3.3 E 6 7 3 4 1020.8 1020.8 0.0
23/04:30pm 15.1 13.4 7.4 60 3.8 E 6 7 3 4 1020.6 1020.6 0.0
23/04:00pm 15.0 13.0 7.3 60 3.8 E 7 9 4 5 1020.5 1020.5 0.0
23/03:30pm 15.4 12.9 6.7 56 4.3 SE 9 15 5 8 1020.5 1020.5 0.0
23/03:00pm 15.7 12.6 7.2 57 4.2 SE 13 17 7 9 1020.5 1020.5 0.0
23/02:30pm 15.9 12.8 7.1 56 4.4 SE 13 19 7 10 1020.4 1020.4 0.0
23/02:00pm 16.0 12.1 7.0 55 4.4 SSE 17 22 9 12 1020.6 1020.6 0.0
23/01:30pm 16.3 14.7 8.8 61 3.9 SSE 7 13 4 7 1020.8 1020.8 0.0
23/01:00pm 15.8 13.2 7.6 58 4.1 E 11 19 6 10 1021.1 1021.1 0.0
23/12:30pm 15.3 12.7 7.6 60 3.8 ESE 11 17 6 9 1021.4 1021.4 0.0
23/12:00pm 15.0 12.4 7.8 62 3.6 ESE 11 15 6 8 1021.8 1021.8 0.0
23/11:30am 15.4 12.6 8.4 63 3.6 SE 13 19 7 10 1022.0 1022.0 0.0
23/11:00am 14.1 11.6 8.1 67 3.0 ESE 11 17 6 9 1022.1 1022.1 0.0
23/10:30am 13.6 10.7 8.2 70 2.7 ESE 13 20 7 11 1022.2 1022.2 0.0
23/10:00am 12.3 10.1 9.3 82 1.5 ESE 11 13 6 7 1022.4 1022.4 0.0
23/09:30am 12.0 10.9 10.7 92 0.7 SE 7 9 4 5 1021.9 1021.9 0.0
23/09:00am 11.2 11.5 10.9 98 0.2 CALM 0 0 0 0 1021.7 1021.7 5.6
23/08:30am 10.7 10.9 10.4 98 0.2 CALM 0 0 0 0 1021.3 1021.3 5.6
23/08:00am 9.8 9.7 9.5 98 0.1 CALM 0 0 0 0 1020.8 1020.8 5.6
23/07:30am 8.5 8.1 8.2 98 0.1 CALM 0 0 0 0 1020.6 1020.6 5.6
23/07:00am 7.8 7.2 7.2 96 0.3 CALM 0 0 0 0 1020.3 1020.3 5.4
23/06:30am 9.1 8.8 8.5 96 0.3 CALM 0 0 0 0 1020.1 1020.1 5.4
23/06:00am 9.9 9.8 9.3 96 0.3 CALM 0 0 0 0 1019.9 1019.9 5.4
23/05:30am 11.0 11.2 10.4 96 0.3 CALM 0 0 0 0 1019.6 1019.6 5.4
23/05:00am 11.5 11.8 11.0 97 0.3 CALM 0 0 0 0 1019.4 1019.4 5.4
23/04:30am 11.6 11.9 11.0 96 0.3 CALM 0 4 0 2 1019.3 1019.3 5.4
23/04:00am 11.7 10.4 11.1 96 0.3 ESE 9 13 5 7 1019.3 1019.3 5.4
23/03:30am 12.0 10.7 11.4 96 0.3 SE 9 11 5 6 1019.5 1019.5 5.4
23/03:00am 12.1 10.9 11.5 96 0.3 SE 9 13 5 7 1019.5 1019.5 5.4
23/02:30am 12.4 11.8 11.8 96 0.3 SSW 6 11 3 6 1019.5 1019.5 5.4
23/02:00am 12.4 11.6 11.8 96 0.3 WSW 7 9 4 5 1019.3 1019.3 5.2
23/01:30am 11.3 10.4 10.7 96 0.3 WNW 6 15 3 8 1019.4 1019.4 5.0
23/01:00am 11.3 9.9 10.8 97 0.3 WNW 9 13 5 7 1019.3 1019.3 4.0
23/12:30am 11.2 9.4 10.7 97 0.3 N 11 11 6 6 1019.2 1019.2 4.0
23/12:00am 11.4 10.3 10.8 96 0.3 N 7 9 4 5 1019.3 1019.3 4.0

Other Formats:

Comma delimited format used in spreadsheet applications
http://www.bom.gov.au/fwo/IDW60801/IDW60801.95612.axf

JavaScript Object Notation format (JSON) in row-major order
http://www.bom.gov.au/fwo/IDW60801/IDW60801.95612.json